Time;durP1;ratioP1;P1;durP2;ratioP2;P2;SDS_P1;SDS_P2;PMS_P1;PMS_P2;Temp;Humidity;BMP_temperature;BMP_pressure;BME280_temperature;BME280_humidity;BME280_pressure;Samples;Min_cycle;Max_cycle;Signal;HPM_P1;HPM_P2
2021/06/24 00:00:55;;;;;;;47.80;7.62;;;;;;;20.61;83.62;100750.91;1676823;85;20985;-41
2021/06/24 00:03:26;;;;;;;47.27;6.95;;;;;;;20.59;83.62;100752.78;1661112;86;20979;-40
2021/06/24 00:05:53;;;;;;;45.92;6.92;;;;;;;20.57;83.63;100744.59;1663569;85;20965;-40
2021/06/24 00:08:21;;;;;;;45.88;7.40;;;;;;;20.57;83.65;100749.36;1672701;85;21259;-40
2021/06/24 00:10:49;;;;;;;45.98;7.30;;;;;;;20.56;83.67;100745.04;1600974;88;21000;-40
2021/06/24 00:13:16;;;;;;;52.85;7.00;;;;;;;20.55;83.70;100745.14;1616831;88;21623;-40
2021/06/24 00:15:42;;;;;;;44.75;7.30;;;;;;;20.53;83.78;100739.50;1628535;88;21028;-39
2021/06/24 00:18:08;;;;;;;51.90;7.28;;;;;;;20.53;83.81;100739.95;1643963;85;21000;-39
2021/06/24 00:20:37;;;;;;;36.35;7.10;;;;;;;20.51;83.86;100737.43;1641043;87;21251;-39
2021/06/24 00:23:05;;;;;;;46.75;7.20;;;;;;;20.51;83.89;100732.63;1654982;86;21031;-39
2021/06/24 00:25:32;;;;;;;43.33;7.15;;;;;;;20.51;83.91;100735.25;1650754;86;20968;-39
2021/06/24 00:27:59;;;;;;;46.77;7.85;;;;;;;20.49;83.86;100736.67;1655276;86;21000;-39
2021/06/24 00:30:26;;;;;;;37.88;7.05;;;;;;;20.49;83.84;100734.05;1655171;85;21024;-38
2021/06/24 00:32:53;;;;;;;37.05;7.65;;;;;;;20.50;83.81;100729.62;1657007;85;21143;-39
2021/06/24 00:35:19;;;;;;;45.90;7.10;;;;;;;20.51;83.71;100728.68;1661467;85;21016;-39
2021/06/24 00:37:47;;;;;;;40.28;7.35;;;;;;;20.53;83.63;100725.50;1671261;85;20968;-41
2021/06/24 00:40:15;;;;;;;39.67;7.40;;;;;;;20.55;83.52;100727.56;1682718;85;20969;-39
2021/06/24 00:42:42;;;;;;;44.63;7.35;;;;;;;20.57;83.42;100729.64;1680840;85;21436;-38
2021/06/24 00:45:10;;;;;;;36.28;6.83;;;;;;;20.59;83.51;100722.55;1676703;85;21876;-38
2021/06/24 00:47:39;;;;;;;48.90;8.48;;;;;;;20.60;83.56;100719.44;1682183;85;20870;-39
2021/06/24 00:50:07;;;;;;;55.73;6.90;;;;;;;20.62;83.42;100730.26;1678311;84;21003;-39
2021/06/24 00:52:35;;;;;;;38.17;6.12;;;;;;;20.64;83.41;100729.70;1675698;84;20984;-39
2021/06/24 00:55:05;;;;;;;47.75;6.90;;;;;;;20.65;83.44;100734.02;1679088;84;20956;-40
2021/06/24 00:57:33;;;;;;;49.10;7.60;;;;;;;20.65;83.44;100736.66;1658658;84;21183;-39
2021/06/24 01:00:00;;;;;;;42.80;7.95;;;;;;;20.65;83.37;100734.02;1663552;84;20995;-39
2021/06/24 01:02:27;;;;;;;41.20;6.60;;;;;;;20.66;83.32;100738.80;1684959;84;21039;-39
2021/06/24 01:04:54;;;;;;;31.82;5.58;;;;;;;20.64;83.23;100741.53;1691295;84;20964;-40
2021/06/24 01:07:21;;;;;;;41.73;6.70;;;;;;;20.63;83.08;100741.16;1662974;85;21012;-39
2021/06/24 01:09:59;;;;;;;41.85;5.53;;;;;;;20.63;83.08;100738.98;1664707;85;21186;-39
2021/06/24 01:12:25;;;;;;;33.33;6.90;;;;;;;20.62;83.13;100739.46;1626007;87;21031;-39
2021/06/24 01:14:52;;;;;;;47.62;6.62;;;;;;;20.62;83.07;100736.83;1673120;84;20971;-39
2021/06/24 01:17:19;;;;;;;44.70;6.65;;;;;;;20.63;82.91;100735.89;1656157;85;21020;-39
2021/06/24 01:19:47;;;;;;;25.50;5.85;;;;;;;20.64;82.84;100724.89;1663148;86;20948;-39
2021/06/24 01:22:13;;;;;;;37.48;5.92;;;;;;;20.64;82.73;100726.20;1664629;84;21204;-39
2021/06/24 01:24:40;;;;;;;46.75;6.70;;;;;;;20.64;82.66;100727.07;1612676;87;20952;-39
2021/06/24 01:27:08;;;;;;;43.73;7.22;;;;;;;20.63;82.51;100722.75;1658345;86;21047;-39
2021/06/24 01:29:35;;;;;;;46.30;6.83;;;;;;;20.62;82.32;100719.73;1663826;86;20917;-39
2021/06/24 01:32:03;;;;;;;36.75;7.20;;;;;;;20.61;82.09;100719.81;1667126;84;20897;-40
2021/06/24 01:34:30;;;;;;;36.73;7.00;;;;;;;20.58;82.04;100715.56;1677924;84;21127;-41
2021/06/24 01:36:57;;;;;;;46.65;6.83;;;;;;;20.56;81.94;100712.66;1663944;86;20952;-40
2021/06/24 01:39:24;;;;;;;45.33;6.55;;;;;;;20.54;81.93;100721.93;1659207;86;20952;-40
2021/06/24 01:41:58;;;;;;;33.25;6.28;;;;;;;20.53;82.17;100722.87;1658437;86;20965;-40
2021/06/24 01:44:33;;;;;;;40.23;7.05;;;;;;;20.53;82.87;100717.61;1651213;86;21533;-39
2021/06/24 01:47:03;;;;;;;34.18;6.62;;;;;;;20.51;83.52;100723.42;1663613;85;21092;-39
2021/06/24 01:49:30;;;;;;;31.52;5.90;;;;;;;20.50;83.71;100721.28;1661929;86;21083;-39
2021/06/24 01:51:57;;;;;;;38.23;6.05;;;;;;;20.50;83.65;100723.05;1652896;86;20956;-39
2021/06/24 01:54:24;;;;;;;31.48;5.62;;;;;;;20.48;83.41;100715.71;1641234;86;21016;-39
2021/06/24 01:56:52;;;;;;;36.93;6.20;;;;;;;20.49;83.52;100724.84;1698780;84;21092;-39
2021/06/24 01:59:19;;;;;;;34.78;5.35;;;;;;;20.51;83.77;100730.00;1648714;85;21142;-39
2021/06/24 02:01:56;;;;;;;41.08;5.85;;;;;;;20.52;83.92;100729.06;1644981;85;21703;-39
2021/06/24 02:04:28;;;;;;;46.30;5.92;;;;;;;20.53;84.18;100730.30;1646227;86;21047;-39
2021/06/24 02:06:55;;;;;;;43.33;6.50;;;;;;;20.56;84.50;100726.63;1644032;86;21004;-40
2021/06/24 02:09:23;;;;;;;38.75;7.45;;;;;;;20.58;84.44;100730.51;1640567;86;20948;-40
2021/06/24 02:11:57;;;;;;;33.13;6.45;;;;;;;20.57;84.27;100728.33;1653201;85;21140;-40
2021/06/24 02:14:26;;;;;;;44.50;6.15;;;;;;;20.60;84.20;100726.00;1610691;88;20965;-40
2021/06/24 02:16:53;;;;;;;44.58;7.33;;;;;;;20.62;84.07;100725.00;1602480;87;21522;-39
2021/06/24 02:19:19;;;;;;;40.08;6.17;;;;;;;20.65;83.86;100728.77;1632708;86;21529;-40
2021/06/24 02:21:54;;;;;;;54.58;7.85;;;;;;;20.70;83.77;100724.53;1631960;87;22078;-41
2021/06/24 02:24:21;;;;;;;49.60;6.37;;;;;;;20.76;83.53;100719.41;1699831;84;22116;-40
2021/06/24 02:26:49;;;;;;;50.88;6.25;;;;;;;20.81;83.32;100721.33;1672267;85;20995;-40
2021/06/24 02:29:18;;;;;;;49.75;7.10;;;;;;;20.86;83.28;100725.02;1685329;85;21738;-40
2021/06/24 02:31:44;;;;;;;60.92;6.78;;;;;;;20.91;82.98;100721.20;1688940;85;21615;-40
2021/06/24 02:34:13;;;;;;;61.73;7.12;;;;;;;20.96;82.71;100719.14;1699976;82;20959;-40
2021/06/24 02:36:47;;;;;;;54.48;6.92;;;;;;;21.01;82.62;100723.28;1657419;85;21213;-40
2021/06/24 02:39:14;;;;;;;50.90;6.53;;;;;;;21.06;82.48;100727.80;1689120;85;20939;-40
2021/06/24 02:41:41;;;;;;;53.60;7.25;;;;;;;21.11;82.30;100727.09;1688839;85;20991;-40
2021/06/24 02:44:09;;;;;;;30.50;5.72;;;;;;;21.15;82.16;100724.65;1690272;84;21018;-40
2021/06/24 02:46:36;;;;;;;34.25;5.60;;;;;;;21.18;81.73;100724.47;1665623;85;21055;-40
2021/06/24 02:49:02;;;;;;;39.83;6.05;;;;;;;21.21;81.30;100722.09;1663742;86;21140;-40
2021/06/24 02:51:30;;;;;;;52.58;7.67;;;;;;;21.25;81.29;100725.78;1670235;85;21018;-40
2021/06/24 02:54:05;;;;;;;28.73;5.90;;;;;;;21.31;81.41;100728.53;1686163;84;21016;-40
2021/06/24 02:56:41;;;;;;;37.25;6.15;;;;;;;21.35;81.10;100723.45;1643830;85;21020;-40
2021/06/24 02:59:10;;;;;;;40.30;6.90;;;;;;;21.39;81.09;100724.13;1636539;87;20928;-40
2021/06/24 03:01:39;;;;;;;48.52;6.90;;;;;;;21.43;81.02;100729.58;1642278;87;21166;-40
2021/06/24 03:04:13;;;;;;;40.03;5.65;;;;;;;21.44;81.10;100726.02;1668887;85;20969;-40
2021/06/24 03:06:42;;;;;;;41.30;6.12;;;;;;;21.48;80.64;100724.05;1654478;85;20983;-40
2021/06/24 03:09:09;;;;;;;33.48;5.72;;;;;;;21.51;80.05;100726.50;1676131;85;20897;-39
2021/06/24 03:11:37;;;;;;;31.75;5.83;;;;;;;21.54;79.70;100721.87;1652625;85;21541;-40
2021/06/24 03:14:06;;;;;;;43.73;6.62;;;;;;;21.58;79.63;100719.91;1654394;85;21169;-41
2021/06/24 03:16:34;;;;;;;30.02;6.47;;;;;;;21.63;78.99;100719.64;1672470;85;20952;-41
2021/06/24 03:19:01;;;;;;;22.02;5.35;;;;;;;21.69;78.65;100710.07;1649455;85;20983;-40
2021/06/24 03:21:28;;;;;;;36.45;5.58;;;;;;;21.72;78.09;100710.33;1614064;88;21011;-40
2021/06/24 03:23:55;;;;;;;42.13;5.67;;;;;;;21.73;77.90;100706.79;1624661;87;21138;-40
2021/06/24 03:26:22;;;;;;;36.68;6.75;;;;;;;21.74;77.89;100705.84;1673639;85;21118;-41
2021/06/24 03:28:50;;;;;;;38.13;5.87;;;;;;;21.78;77.88;100706.03;1657706;85;20972;-40
2021/06/24 03:31:18;;;;;;;42.98;6.25;;;;;;;21.87;77.80;100701.98;1640386;87;21033;-41
2021/06/24 03:33:45;;;;;;;37.45;6.22;;;;;;;21.97;77.59;100705.72;1649473;85;20975;-41
2021/06/24 03:36:12;;;;;;;43.28;5.80;;;;;;;22.11;77.75;100704.84;1639899;87;20960;-41
2021/06/24 03:38:44;;;;;;;38.75;6.47;;;;;;;22.30;77.31;100705.00;1640178;87;21144;-41
2021/06/24 03:41:09;;;;;;;38.15;5.78;;;;;;;22.51;76.05;100710.70;1640191;86;21063;-40
2021/06/24 03:43:36;;;;;;;38.13;6.08;;;;;;;22.74;74.70;100707.03;1642194;85;21044;-40
2021/06/24 03:46:02;;;;;;;22.27;5.33;;;;;;;23.01;73.94;100701.73;1670938;85;21031;-40
2021/06/24 03:48:31;;;;;;;43.45;6.65;;;;;;;23.34;73.13;100695.58;1671626;85;21026;-41
2021/06/24 03:50:59;;;;;;;34.98;6.53;;;;;;;23.66;71.82;100695.99;1639009;87;21151;-39
2021/06/24 03:53:27;;;;;;;38.15;6.50;;;;;;;23.89;71.04;100696.66;1672901;84;21457;-39
2021/06/24 03:55:55;;;;;;;39.03;6.35;;;;;;;24.08;70.61;100695.72;1678735;84;20971;-40
2021/06/24 03:58:23;;;;;;;33.60;6.20;;;;;;;24.30;69.61;100692.84;1672135;85;21005;-39
2021/06/24 04:00:50;;;;;;;38.88;6.87;;;;;;;24.48;67.96;100685.84;1672995;85;21003;-39
2021/06/24 04:03:17;;;;;;;33.75;5.95;;;;;;;24.65;66.63;100688.09;1673840;84;21161;-39
2021/06/24 04:06:06;;;;;;;53.28;7.72;;;;;;;24.82;65.48;100682.89;1673813;84;20971;-39
2021/06/24 04:12:49;;;;;;;30.92;6.00;;;;;;;25.03;64.70;100687.98;1675900;85;20958;-40
2021/06/24 04:15:28;;;;;;;40.30;6.05;;;;;;;25.22;64.68;100691.38;1671085;85;21038;-40
2021/06/24 04:17:55;;;;;;;47.55;5.95;;;;;;;25.34;63.98;100689.13;1672770;85;21077;-40
2021/06/24 04:20:22;;;;;;;33.13;6.00;;;;;;;25.47;63.77;100686.40;1672761;85;20971;-40
2021/06/24 04:22:49;;;;;;;28.55;5.80;;;;;;;25.62;63.27;100675.54;1672927;85;21079;-40
2021/06/24 04:25:18;;;;;;;33.23;6.50;;;;;;;25.73;62.31;100669.39;1675091;84;20956;-40
2021/06/24 04:27:45;;;;;;;39.67;6.15;;;;;;;25.82;62.15;100666.85;1626075;87;21030;-39
2021/06/24 04:30:15;;;;;;;46.88;6.17;;;;;;;25.99;61.62;100664.67;1688471;84;21321;-40
2021/06/24 04:32:44;;;;;;;35.60;6.10;;;;;;;26.14;61.11;100669.20;1703339;84;20903;-40
2021/06/24 04:35:12;;;;;;;43.38;5.70;;;;;;;26.30;60.59;100666.67;1674549;85;21048;-40
2021/06/24 04:37:39;;;;;;;38.50;6.53;;;;;;;26.45;60.21;100673.34;1674732;85;20968;-40
2021/06/24 04:40:09;;;;;;;47.58;7.12;;;;;;;26.58;59.36;100674.50;1675138;85;20995;-40
2021/06/24 04:42:37;;;;;;;44.73;6.50;;;;;;;26.67;58.96;100676.41;1682746;84;21168;-40
2021/06/24 04:45:07;;;;;;;44.60;5.85;;;;;;;26.85;58.90;100673.69;1680911;84;21545;-40
2021/06/24 04:47:36;;;;;;;47.30;6.25;;;;;;;27.03;58.02;100679.25;1674591;85;20936;-40
2021/06/24 04:50:05;;;;;;;51.02;7.03;;;;;;;27.21;56.66;100676.83;1675028;85;21035;-40
2021/06/24 04:52:33;;;;;;;42.23;5.92;;;;;;;27.31;56.63;100671.56;1642468;85;21007;-41
2021/06/24 04:55:06;;;;;;;44.13;6.87;;;;;;;27.37;56.38;100674.54;1656771;86;21141;-41
2021/06/24 04:57:33;;;;;;;37.15;5.60;;;;;;;27.57;55.43;100673.80;1664703;85;21006;-41
2021/06/24 05:00:06;;;;;;;39.30;5.90;;;;;;;27.65;55.83;100673.48;1656186;86;21821;-41
2021/06/24 05:02:37;;;;;;;34.65;5.45;;;;;;;27.82;56.47;100677.31;1612045;86;20958;-41
2021/06/24 05:05:10;;;;;;;49.18;6.03;;;;;;;28.05;55.60;100676.27;1632527;86;21505;-41
2021/06/24 05:07:38;;;;;;;30.52;6.20;;;;;;;28.24;54.45;100672.81;1654283;86;22010;-41
2021/06/24 05:10:06;;;;;;;33.70;6.10;;;;;;;28.45;54.04;100678.50;1655869;85;21531;-41
2021/06/24 05:12:34;;;;;;;32.83;5.92;;;;;;;28.62;52.85;100683.59;1674404;85;21039;-40
2021/06/24 05:15:01;;;;;;;28.17;4.97;;;;;;;28.68;52.82;100682.55;1651652;85;21005;-40
2021/06/24 05:17:28;;;;;;;30.75;5.47;;;;;;;28.78;52.49;100672.37;1661281;85;21024;-40
2021/06/24 05:19:55;;;;;;;26.73;4.97;;;;;;;28.84;51.35;100679.81;1671573;84;21105;-40
2021/06/24 05:22:22;;;;;;;26.75;5.25;;;;;;;28.81;51.09;100689.42;1683470;84;21286;-40
2021/06/24 05:24:48;;;;;;;25.15;5.25;;;;;;;28.70;50.96;100692.22;1693848;84;21011;-40
2021/06/24 05:27:15;;;;;;;43.17;5.45;;;;;;;28.58;50.90;100696.84;1688194;84;20976;-40
2021/06/24 05:29:42;;;;;;;27.77;5.42;;;;;;;28.51;50.54;100689.91;1671431;85;21368;-40
2021/06/24 05:32:09;;;;;;;26.77;4.55;;;;;;;28.43;51.02;100687.94;1658276;85;21943;-40
2021/06/24 05:34:35;;;;;;;31.73;4.97;;;;;;;28.44;50.52;100697.60;1656720;86;21008;-40
2021/06/24 05:37:03;;;;;;;26.80;4.58;;;;;;;28.43;50.82;100703.08;1665052;84;21066;-40
2021/06/24 05:39:30;;;;;;;17.50;3.83;;;;;;;28.47;50.02;100699.16;1666298;85;21003;-40
2021/06/24 05:41:57;;;;;;;26.57;4.45;;;;;;;28.53;50.17;100703.41;1665146;84;20991;-40
2021/06/24 05:44:25;;;;;;;28.25;4.33;;;;;;;28.59;49.38;100705.18;1662349;84;21141;-40
2021/06/24 05:46:53;;;;;;;28.73;4.53;;;;;;;28.63;49.32;100705.25;1657419;85;21019;-40
2021/06/24 05:49:20;;;;;;;28.80;4.33;;;;;;;28.76;48.07;100702.30;1662079;86;20956;-40
2021/06/24 05:51:49;;;;;;;28.85;4.62;;;;;;;28.82;47.87;100704.41;1658195;86;21020;-41
2021/06/24 05:54:16;;;;;;;22.70;4.37;;;;;;;28.91;48.59;100704.88;1656769;86;20960;-40
2021/06/24 05:56:42;;;;;;;25.27;4.35;;;;;;;29.02;48.26;100705.72;1656479;86;21160;-40
2021/06/24 05:59:09;;;;;;;21.27;4.00;;;;;;;29.22;48.56;100702.52;1656591;85;20937;-40
2021/06/24 06:01:43;;;;;;;22.27;4.40;;;;;;;29.35;47.73;100694.20;1658886;86;20956;-40
2021/06/24 06:04:10;;;;;;;24.32;4.47;;;;;;;29.37;46.66;100699.73;1672197;84;21505;-40
2021/06/24 06:06:37;;;;;;;27.65;4.15;;;;;;;29.38;47.27;100697.89;1670599;86;21553;-40
2021/06/24 06:09:05;;;;;;;26.17;4.25;;;;;;;29.44;47.54;100697.37;1670759;86;21820;-40
2021/06/24 06:11:32;;;;;;;35.58;4.50;;;;;;;29.50;46.32;100692.77;1671976;85;21022;-40
2021/06/24 06:13:59;;;;;;;20.90;4.05;;;;;;;29.53;46.03;100689.81;1673463;85;20990;-40
2021/06/24 06:16:27;;;;;;;25.02;5.25;;;;;;;29.49;45.68;100684.91;1643444;87;21645;-40
2021/06/24 06:18:55;;;;;;;36.42;4.72;;;;;;;29.36;45.84;100681.21;1643475;87;20909;-40
2021/06/24 06:21:22;;;;;;;26.12;4.40;;;;;;;29.25;45.79;100680.42;1642328;87;21115;-40
2021/06/24 06:23:49;;;;;;;27.90;4.90;;;;;;;29.12;46.71;100671.89;1670495;85;21054;-41
2021/06/24 06:26:15;;;;;;;23.57;4.47;;;;;;;29.03;47.48;100676.77;1670675;85;20959;-40
2021/06/24 06:28:43;;;;;;;17.77;3.90;;;;;;;29.05;47.99;100674.80;1670538;84;20998;-40
2021/06/24 06:31:10;;;;;;;22.25;4.17;;;;;;;29.16;47.60;100682.61;1671603;85;20924;-41
2021/06/24 06:33:36;;;;;;;35.80;4.08;;;;;;;29.27;47.55;100677.59;1661685;86;21149;-41
2021/06/24 06:36:04;;;;;;;18.73;4.37;;;;;;;29.43;47.80;100679.70;1643763;87;21047;-40
2021/06/24 06:38:30;;;;;;;28.87;4.62;;;;;;;29.54;47.55;100690.63;1643234;87;21031;-40
2021/06/24 06:40:57;;;;;;;27.40;4.87;;;;;;;29.60;46.83;100687.88;1673456;85;21489;-40
2021/06/24 06:43:23;;;;;;;27.45;4.40;;;;;;;29.58;47.18;100685.38;1672871;85;21038;-40
2021/06/24 06:45:51;;;;;;;31.07;4.20;;;;;;;29.65;47.42;100684.27;1643556;87;21935;-39
2021/06/24 06:48:18;;;;;;;31.05;4.72;;;;;;;29.80;47.31;100682.80;1643295;87;21046;-40
2021/06/24 06:50:45;;;;;;;19.82;4.90;;;;;;;29.87;46.69;100682.19;1674299;85;20967;-40
2021/06/24 06:53:12;;;;;;;36.95;4.80;;;;;;;29.94;46.11;100684.63;1659640;85;20913;-39
2021/06/24 06:55:39;;;;;;;27.93;4.80;;;;;;;30.03;46.13;100688.23;1657055;86;20948;-40
2021/06/24 06:58:05;;;;;;;27.22;4.15;;;;;;;30.19;46.50;100687.55;1656898;86;21125;-40
2021/06/24 07:00:33;;;;;;;29.52;4.70;;;;;;;30.43;46.66;100694.12;1663181;84;21011;-40
2021/06/24 07:03:01;;;;;;;42.00;5.03;;;;;;;30.62;46.69;100689.98;1660478;86;21043;-40
2021/06/24 07:05:28;;;;;;;38.30;5.92;;;;;;;30.85;46.28;100693.50;1661021;86;20973;-40
2021/06/24 07:07:54;;;;;;;41.92;5.25;;;;;;;31.04;45.11;100687.11;1662589;84;20952;-40
2021/06/24 07:10:22;;;;;;;40.12;5.90;;;;;;;31.15;45.23;100687.85;1662702;84;21192;-40
2021/06/24 07:12:49;;;;;;;42.70;5.28;;;;;;;31.15;45.05;100683.84;1660687;86;20972;-40
2021/06/24 07:15:15;;;;;;;40.23;5.65;;;;;;;31.14;45.80;100687.00;1657106;86;20976;-40
2021/06/24 07:17:42;;;;;;;49.93;5.40;;;;;;;31.25;45.76;100692.13;1661952;86;21000;-39
2021/06/24 07:20:11;;;;;;;32.93;4.80;;;;;;;31.28;45.17;100690.12;1662569;86;20928;-40
2021/06/24 07:22:38;;;;;;;37.65;4.62;;;;;;;31.28;45.79;100691.47;1662623;86;21768;-40
2021/06/24 07:25:08;;;;;;;44.48;5.28;;;;;;;31.33;45.84;100694.49;1662592;86;20988;-41
2021/06/24 07:27:34;;;;;;;49.15;5.85;;;;;;;31.38;44.06;100694.36;1662643;86;21267;-40
2021/06/24 07:30:01;;;;;;;35.90;5.35;;;;;;;31.32;43.92;100698.16;1658011;85;20968;-40
2021/06/24 07:32:27;;;;;;;31.37;5.33;;;;;;;31.32;43.87;100694.16;1659619;86;20909;-40
2021/06/24 07:34:54;;;;;;;46.68;7.15;;;;;;;31.49;44.33;100691.91;1657345;84;21892;-40
2021/06/24 07:37:20;;;;;;;31.57;5.17;;;;;;;31.77;44.54;100684.17;1659288;86;21064;-42
2021/06/24 07:39:47;;;;;;;49.85;5.40;;;;;;;32.06;43.77;100682.41;1643160;86;21536;-42
2021/06/24 07:42:13;;;;;;;51.70;6.05;;;;;;;32.30;42.28;100681.26;1661535;86;20969;-42
2021/06/24 07:44:40;;;;;;;39.65;5.72;;;;;;;32.45;40.76;100687.67;1656669;86;21052;-41
2021/06/24 07:47:07;;;;;;;48.42;5.90;;;;;;;32.55;40.92;100688.84;1654401;86;21167;-41
2021/06/24 07:49:34;;;;;;;44.25;6.28;;;;;;;32.61;41.46;100689.50;1662391;85;20957;-41
2021/06/24 07:52:01;;;;;;;42.80;6.15;;;;;;;32.74;40.80;100689.52;1664835;85;21017;-41
2021/06/24 07:54:27;;;;;;;50.58;6.40;;;;;;;32.80;41.29;100690.17;1681038;84;21002;-41
2021/06/24 07:56:55;;;;;;;42.45;6.53;;;;;;;32.88;40.61;100696.88;1679648;85;20905;-41
2021/06/24 07:59:22;;;;;;;45.85;5.25;;;;;;;32.80;40.40;100692.85;1636637;86;21168;-41
2021/06/24 08:01:49;;;;;;;52.35;6.83;;;;;;;32.80;41.24;100692.85;1669762;85;21008;-41
2021/06/24 08:05:36;;;;;;;56.63;6.92;;;;;;;32.92;41.02;100698.73;1801262;79;23164;-41
2021/06/24 08:08:04;;;;;;;41.40;6.12;;;;;;;32.90;41.26;100703.42;1773512;79;20916;-41
2021/06/24 08:10:32;;;;;;;56.83;7.05;;;;;;;32.91;41.01;100702.41;1763676;80;21094;-41
2021/06/24 08:12:58;;;;;;;52.55;6.83;;;;;;;32.91;40.97;100702.41;1769871;80;20995;-41
2021/06/24 08:15:27;;;;;;;51.92;6.92;;;;;;;32.93;41.89;100703.91;1777567;80;21525;-42
2021/06/24 08:17:55;;;;;;;49.98;7.03;;;;;;;33.10;41.16;100698.52;1723165;83;20971;-41
2021/06/24 08:20:22;;;;;;;68.20;8.00;;;;;;;33.19;41.31;100708.20;1722512;83;20935;-41
2021/06/24 08:22:49;;;;;;;59.83;7.10;;;;;;;33.28;39.44;100702.31;1722555;83;21164;-40
2021/06/24 08:25:16;;;;;;;50.40;7.60;;;;;;;33.28;39.88;100694.80;1738084;82;20869;-40
2021/06/24 08:27:42;;;;;;;54.80;7.67;;;;;;;33.35;38.97;100705.16;1735742;82;20977;-40
2021/06/24 08:30:11;;;;;;;57.50;7.90;;;;;;;33.41;38.91;100708.48;1697453;83;21091;-41
2021/06/24 08:32:37;;;;;;;45.95;7.72;;;;;;;33.46;40.16;100712.84;1678075;84;21044;-41
2021/06/24 08:35:08;;;;;;;69.60;8.68;;;;;;;33.60;40.15;100707.28;1683171;85;21134;-40
2021/06/24 08:37:37;;;;;;;65.40;9.13;;;;;;;33.57;38.43;100713.49;1678356;85;20925;-40
2021/06/24 08:40:06;;;;;;;65.55;7.78;;;;;;;33.34;39.69;100723.59;1655133;86;20972;-41
2021/06/24 08:42:33;;;;;;;42.03;6.70;;;;;;;33.15;39.82;100726.98;1667970;85;21504;-41
2021/06/24 08:45:01;;;;;;;63.25;8.20;;;;;;;32.90;40.69;100721.66;1670347;85;21551;-42
2021/06/24 08:47:29;;;;;;;67.37;7.60;;;;;;;32.86;41.23;100725.66;1676914;85;21131;-42
2021/06/24 08:49:57;;;;;;;76.72;8.33;;;;;;;32.83;42.10;100727.34;1670736;85;21007;-42
2021/06/24 08:52:24;;;;;;;64.92;8.58;;;;;;;32.86;41.65;100732.88;1673503;85;21090;-41
2021/06/24 08:54:51;;;;;;;71.28;8.10;;;;;;;32.81;42.79;100734.20;1681703;84;21036;-42
2021/06/24 08:57:18;;;;;;;67.42;9.00;;;;;;;32.81;41.71;100738.22;1676624;85;21126;-42
2021/06/24 08:59:45;;;;;;;58.68;8.00;;;;;;;32.79;41.51;100734.05;1664035;85;21766;-40
2021/06/24 09:02:15;;;;;;;64.40;9.13;;;;;;;32.84;41.73;100743.75;1669328;85;21632;-40
2021/06/24 09:04:46;;;;;;;74.35;8.63;;;;;;;32.89;41.27;100742.77;1674506;82;20950;-40
2021/06/24 09:07:24;;;;;;;93.62;10.70;;;;;;;33.01;41.31;100745.13;1652985;86;21100;-40
2021/06/24 09:09:56;;;;;;;73.72;9.48;;;;;;;33.13;40.15;100743.75;1659405;86;21069;-41
2021/06/24 09:12:24;;;;;;;58.42;8.03;;;;;;;33.13;40.51;100746.42;1654437;86;21162;-41
2021/06/24 09:14:55;;;;;;;93.20;9.85;;;;;;;33.48;42.58;100751.08;1656530;86;20937;-40
2021/06/24 09:17:39;;;;;;;57.88;8.85;;;;;;;33.95;39.64;100737.33;1653395;86;20927;-41
2021/06/24 09:20:29;;;;;;;59.88;8.50;;;;;;;34.28;38.43;100738.98;1653544;86;21036;-41
2021/06/24 09:23:19;;;;;;;73.42;9.45;;;;;;;34.53;38.48;100743.68;1656405;85;20978;-41
2021/06/24 09:26:06;;;;;;;85.05;9.58;;;;;;;34.66;33.88;100742.25;1655448;86;21780;-41
2021/06/24 09:28:41;;;;;;;72.62;8.28;;;;;;;34.51;33.04;100736.31;1682599;84;21018;-41
2021/06/24 09:31:27;;;;;;;68.07;8.05;;;;;;;34.37;32.14;100732.52;1720691;82;20944;-41
2021/06/24 09:33:56;;;;;;;85.05;9.38;;;;;;;34.25;33.26;100738.00;1716752;82;20937;-41
2021/06/24 09:36:38;;;;;;;68.57;9.25;;;;;;;34.32;32.75;100738.09;1717922;82;20975;-41
2021/06/24 09:39:21;;;;;;;50.10;6.97;;;;;;;34.24;33.35;100735.80;1701635;82;21256;-40
2021/06/24 09:42:02;;;;;;;53.42;7.35;;;;;;;34.23;34.02;100735.97;1689955;83;20908;-41
2021/06/24 09:44:29;;;;;;;59.27;8.15;;;;;;;34.27;33.90;100734.63;1717766;83;20997;-41
2021/06/24 09:46:57;;;;;;;54.18;7.97;;;;;;;34.37;36.50;100732.52;1716449;82;20960;-41
2021/06/24 09:49:32;;;;;;;64.32;7.53;;;;;;;34.73;34.72;100731.59;1717933;82;21637;-41
2021/06/24 09:52:00;;;;;;;51.48;7.17;;;;;;;34.95;35.02;100734.75;1727568;82;22004;-41
2021/06/24 09:54:43;;;;;;;51.77;6.58;;;;;;;35.12;35.09;100731.11;1697626;83;21019;-41
2021/06/24 09:57:13;;;;;;;44.60;6.42;;;;;;;35.13;34.74;100725.53;1717729;82;20991;-41
2021/06/24 09:59:40;;;;;;;38.30;6.30;;;;;;;35.16;34.95;100723.81;1696649;83;21011;-41
2021/06/24 10:02:13;;;;;;;55.15;7.83;;;;;;;35.14;34.31;100728.55;1697788;83;21054;-41
2021/06/24 10:04:42;;;;;;;44.13;6.35;;;;;;;35.00;34.63;100725.32;1709386;83;21066;-41
2021/06/24 10:07:12;;;;;;;53.90;7.15;;;;;;;34.95;34.29;100721.30;1721295;82;20956;-41
2021/06/24 10:09:42;;;;;;;54.98;7.55;;;;;;;35.08;33.67;100724.73;1712864;82;21007;-40
2021/06/24 10:12:13;;;;;;;47.45;6.87;;;;;;;35.28;32.60;100732.27;1709601;82;21406;-41
2021/06/24 10:14:43;;;;;;;48.28;6.12;;;;;;;35.59;31.98;100730.43;1705226;83;20959;-42
2021/06/24 10:17:09;;;;;;;46.37;6.53;;;;;;;35.79;32.91;100731.52;1682933;84;21057;-41
2021/06/24 10:19:43;;;;;;;38.58;5.95;;;;;;;35.93;32.09;100735.70;1726205;82;20975;-41
2021/06/24 10:22:14;;;;;;;38.67;5.22;;;;;;;35.99;30.35;100725.50;1711163;82;20909;-40
2021/06/24 10:24:50;;;;;;;29.87;5.10;;;;;;;36.03;30.67;100729.54;1728770;81;20988;-41
2021/06/24 10:27:16;;;;;;;37.20;5.85;;;;;;;36.01;31.15;100730.71;1708687;82;20934;-41
2021/06/24 10:29:50;;;;;;;37.10;5.65;;;;;;;36.09;30.52;100726.58;1706925;83;21019;-42
2021/06/24 10:32:30;;;;;;;30.43;4.87;;;;;;;36.03;31.96;100738.97;1709843;82;20944;-41
2021/06/24 10:35:02;;;;;;;35.92;5.28;;;;;;;35.87;30.45;100730.55;1681946;84;20984;-42
2021/06/24 10:37:30;;;;;;;29.70;4.60;;;;;;;35.49;31.70;100732.84;1670235;84;21016;-40
2021/06/24 10:39:59;;;;;;;36.75;5.12;;;;;;;35.18;33.42;100730.38;1698085;84;21044;-40
2021/06/24 10:42:32;;;;;;;36.95;4.97;;;;;;;34.92;33.33;100724.89;1705867;82;21160;-41
2021/06/24 10:45:02;;;;;;;30.30;4.62;;;;;;;34.74;33.52;100726.58;1717747;82;21561;-42
2021/06/24 10:47:40;;;;;;;29.23;4.65;;;;;;;34.73;33.66;100723.53;1734225;81;20937;-41
2021/06/24 10:50:32;;;;;;;45.25;5.03;;;;;;;34.88;33.31;100731.13;1713171;82;20990;-41
2021/06/24 10:53:07;;;;;;;30.60;4.17;;;;;;;34.99;33.16;100723.62;1713010;83;20959;-41
2021/06/24 10:55:36;;;;;;;30.90;4.00;;;;;;;34.94;32.81;100730.39;1694165;84;22680;-41
2021/06/24 10:58:13;;;;;;;33.48;4.40;;;;;;;34.99;33.01;100727.16;1733616;82;20949;-42
2021/06/24 11:00:44;;;;;;;42.50;4.20;;;;;;;35.23;33.49;100729.30;1716046;82;20964;-41
2021/06/24 11:03:16;;;;;;;22.13;3.83;;;;;;;35.50;32.33;100721.09;1723083;82;20947;-42
2021/06/24 11:05:48;;;;;;;24.30;4.40;;;;;;;35.62;31.37;100722.83;1729929;82;20917;-40
2021/06/24 11:08:28;;;;;;;27.48;4.53;;;;;;;35.58;31.06;100728.77;1723009;81;21143;-40
2021/06/24 11:11:01;;;;;;;32.33;3.77;;;;;;;35.40;31.10;100723.22;1719279;81;21023;-42
2021/06/24 11:13:42;;;;;;;31.42;4.22;;;;;;;35.41;32.02;100723.54;1726257;82;20947;-42
2021/06/24 11:16:21;;;;;;;24.55;4.17;;;;;;;35.46;32.66;100725.68;1721592;82;21015;-41
2021/06/24 11:19:16;;;;;;;30.43;4.53;;;;;;;35.37;32.49;100725.79;1716411;82;20995;-41
2021/06/24 11:21:48;;;;;;;24.67;4.45;;;;;;;35.18;33.52;100724.47;1723682;82;21142;-40
2021/06/24 11:24:20;;;;;;;38.85;4.87;;;;;;;34.90;33.84;100718.86;1717439;82;21533;-41
2021/06/24 11:26:53;;;;;;;33.05;4.83;;;;;;;34.74;34.18;100718.52;1733105;82;21055;-41
2021/06/24 11:32:11;;;;;;;37.90;5.03;;;;;;;34.19;32.22;100735.50;1728947;82;20984;-41
2021/06/24 11:37:27;;;;;;;34.63;5.42;;;;;;;33.62;31.88;100730.75;1707895;82;20893;-40